createdAt,value
2023-03-21T00:02:42.804Z,8.15
2023-03-21T00:07:48.107Z,8.03
2023-03-21T00:12:58.570Z,11.38
2023-03-21T00:18:11.576Z,6.97
2023-03-21T00:23:17.628Z,7.47
2023-03-21T00:28:23.578Z,9.02
2023-03-21T00:33:31.911Z,8.57
2023-03-21T00:38:37.498Z,10.57
2023-03-21T00:43:42.831Z,8.57
2023-03-21T00:48:50.767Z,11.33
2023-03-21T00:53:58.197Z,8.18
2023-03-21T00:59:06.752Z,10.67
2023-03-21T01:04:17.173Z,7.40
2023-03-21T01:09:24.166Z,6.70
2023-03-21T01:14:29.472Z,10.87
2023-03-21T01:19:51.310Z,7.18
2023-03-21T01:25:08.745Z,6.95
2023-03-21T01:30:24.842Z,14.40
2023-03-21T01:35:41.027Z,13.23
2023-03-21T01:40:54.948Z,10.73
2023-03-21T01:46:24.800Z,10.37
2023-03-21T01:52:06.510Z,9.88
2023-03-21T01:57:20.994Z,13.53
2023-03-21T02:02:32.381Z,12.10
2023-03-21T02:07:52.752Z,11.52
2023-03-21T02:13:10.339Z,12.37
2023-03-21T02:18:26.542Z,11.60
2023-03-21T02:24:03.327Z,12.57
2023-03-21T02:29:24.331Z,12.03
2023-03-21T02:35:02.575Z,10.85
2023-03-21T02:40:17.885Z,13.23
2023-03-21T02:45:25.802Z,10.87
2023-03-21T02:50:39.555Z,11.25
2023-03-21T02:55:48.906Z,10.30
2023-03-21T03:00:57.775Z,12.48
2023-03-21T03:06:18.536Z,8.77
2023-03-21T03:11:31.517Z,12.03
2023-03-21T03:16:43.032Z,8.35
2023-03-21T03:21:55.253Z,13.77
2023-03-21T03:27:07.508Z,13.20
2023-03-21T03:32:19.556Z,11.90
2023-03-21T03:37:32.377Z,11.70
2023-03-21T03:42:47.022Z,10.48
2023-03-21T03:48:07.459Z,7.00
2023-03-21T03:53:23.045Z,9.83
2023-03-21T03:58:44.873Z,10.40
2023-03-21T04:04:03.745Z,8.93
2023-03-21T04:09:22.170Z,8.07
2023-03-21T04:14:43.784Z,8.38
2023-03-21T04:19:55.486Z,11.50
2023-03-21T04:25:05.311Z,9.55
2023-03-21T04:30:16.124Z,12.02
2023-03-21T04:35:37.060Z,9.77
2023-03-21T04:40:43.467Z,6.70
2023-03-21T04:45:52.197Z,8.88
2023-03-21T04:50:57.663Z,6.70
2023-03-21T04:56:03.562Z,13.32
2023-03-21T05:01:14.640Z,10.43
2023-03-21T05:06:21.347Z,12.73
2023-03-21T05:11:28.499Z,17.08
2023-03-21T05:16:39.542Z,11.53
2023-03-21T05:21:45.235Z,15.10
2023-03-21T05:27:02.776Z,11.20
2023-03-21T05:32:14.469Z,10.53
2023-03-21T05:37:19.816Z,9.30
2023-03-21T05:42:28.666Z,10.23
2023-03-21T05:47:37.287Z,8.68
2023-03-21T05:52:43.508Z,12.07
2023-03-21T05:57:52.704Z,9.43
2023-03-21T06:03:06.982Z,14.43
2023-03-21T06:08:31.821Z,11.23
2023-03-21T06:13:37.197Z,8.53
2023-03-21T06:18:45.473Z,10.27
2023-03-21T06:24:26.622Z,12.47
2023-03-21T06:29:32.632Z,12.85
2023-03-21T06:34:40.900Z,9.48
2023-03-21T06:39:48.343Z,8.70
2023-03-21T06:44:54.882Z,12.55
2023-03-21T06:50:02.814Z,10.52
2023-03-21T06:55:12.917Z,12.27
2023-03-21T07:00:19.918Z,10.57
2023-03-21T07:05:28.478Z,10.37
2023-03-21T07:10:35.271Z,11.65
2023-03-21T07:15:44.893Z,14.25
2023-03-21T07:20:54.406Z,14.50
2023-03-21T07:25:59.876Z,12.70
2023-03-21T07:31:08.468Z,11.53
2023-03-21T07:36:18.627Z,11.40
2023-03-21T07:41:24.016Z,12.02
2023-03-21T07:46:29.853Z,9.73
2023-03-21T07:51:38.144Z,11.95
2023-03-21T07:56:43.775Z,9.60
2023-03-21T08:01:49.596Z,12.67
2023-03-21T08:06:57.495Z,12.70
2023-03-21T08:12:03.077Z,12.77
2023-03-21T08:17:09.671Z,9.82
2023-03-21T08:22:17.825Z,16.33
2023-03-21T08:27:23.505Z,12.43
2023-03-21T08:32:30.283Z,12.50
2023-03-21T08:37:38.234Z,11.30
2023-03-21T08:42:44.731Z,12.20
2023-03-21T08:47:50.084Z,16.42
2023-03-21T08:52:58.363Z,16.17
2023-03-21T08:58:04.529Z,14.45
2023-03-21T09:03:11.770Z,17.50
2023-03-21T09:08:23.401Z,16.13
2023-03-21T09:13:28.807Z,16.92
2023-03-21T09:18:45.407Z,17.53
2023-03-21T09:23:55.431Z,12.88
2023-03-21T09:29:01.212Z,18.30
2023-03-21T09:34:06.596Z,14.15
2023-03-21T09:39:16.861Z,13.50
2023-03-21T09:44:34.694Z,16.43
2023-03-21T09:49:45.125Z,19.48
2023-03-21T09:54:54.142Z,12.33
2023-03-21T10:00:07.925Z,17.83
2023-03-21T10:05:22.808Z,14.07
2023-03-21T10:10:34.583Z,15.57
2023-03-21T10:15:40.168Z,11.60
2023-03-21T10:20:45.983Z,10.63
2023-03-21T10:25:58.709Z,13.90
2023-03-21T10:31:07.585Z,11.20
2023-03-21T10:36:17.783Z,11.70
2023-03-21T10:41:28.506Z,11.43
2023-03-21T10:46:36.344Z,10.43
2023-03-21T10:51:44.086Z,13.10
2023-03-21T10:56:59.964Z,12.85
2023-03-21T11:02:07.976Z,11.90
2023-03-21T11:07:19.351Z,11.98
2023-03-21T11:12:37.624Z,13.03
2023-03-21T11:17:47.865Z,12.88
2023-03-21T11:22:58.308Z,12.77
2023-03-21T11:28:14.556Z,8.57
2023-03-21T11:33:22.579Z,7.75
2023-03-21T11:38:31.880Z,6.87
2023-03-21T11:43:41.997Z,8.17
2023-03-21T11:48:49.101Z,6.22
2023-03-21T11:54:02.412Z,13.27
2023-03-21T11:59:40.702Z,9.15
2023-03-21T12:04:51.511Z,7.60
2023-03-21T12:10:13.741Z,8.67
2023-03-21T12:15:27.951Z,7.93
2023-03-21T12:20:42.574Z,8.43
2023-03-21T12:25:55.943Z,13.47
2023-03-21T12:31:12.397Z,9.23
2023-03-21T12:36:42.534Z,8.10
2023-03-21T12:41:56.012Z,9.63
2023-03-21T12:47:08.972Z,6.75
2023-03-21T12:52:18.017Z,7.27
2023-03-21T12:57:27.917Z,7.70
2023-03-21T13:02:39.212Z,9.43
2023-03-21T13:07:47.387Z,6.95
2023-03-21T13:13:14.841Z,9.30
2023-03-21T13:18:34.248Z,7.00
2023-03-21T13:23:41.335Z,9.05
2023-03-21T13:28:46.858Z,7.03
2023-03-21T13:33:57.029Z,8.07
2023-03-21T13:39:05.677Z,8.10
2023-03-21T13:44:22.640Z,8.47
2023-03-21T13:49:39.116Z,8.02
2023-03-21T13:54:54.624Z,7.27
2023-03-21T14:00:19.619Z,4.63
2023-03-21T14:05:29.354Z,9.57
2023-03-21T14:10:38.747Z,6.83
2023-03-21T14:15:55.175Z,6.05
2023-03-21T14:21:07.021Z,6.85
2023-03-21T14:26:16.459Z,7.13
2023-03-21T14:31:22.728Z,6.82
2023-03-21T14:36:33.031Z,8.23
2023-03-21T14:41:48.836Z,5.13
2023-03-21T14:47:02.071Z,8.35
2023-03-21T14:52:14.939Z,8.27
2023-03-21T14:57:25.178Z,7.15
2023-03-21T15:02:34.514Z,6.32
2023-03-21T15:07:42.570Z,6.53
2023-03-21T15:12:55.418Z,5.20
2023-03-21T15:18:06.973Z,8.27
2023-03-21T15:23:24.026Z,8.07
2023-03-21T15:28:29.466Z,5.40
2023-03-21T15:33:34.823Z,5.13
2023-03-21T15:38:48.879Z,5.63
2023-03-21T15:44:02.855Z,6.80
2023-03-21T15:49:23.042Z,6.90
2023-03-21T15:54:34.200Z,4.85
2023-03-21T15:59:53.213Z,7.45
2023-03-21T16:05:04.012Z,6.23
2023-03-21T16:10:33.757Z,8.10
2023-03-21T16:15:39.305Z,9.40
2023-03-21T16:20:46.631Z,4.93
2023-03-21T16:25:58.277Z,6.38
2023-03-21T16:31:03.669Z,6.00
2023-03-21T16:36:11.848Z,4.75
2023-03-21T16:41:20.157Z,6.47
2023-03-21T16:46:27.511Z,5.68
2023-03-21T16:51:35.999Z,6.25
2023-03-21T16:56:47.391Z,5.87
2023-03-21T17:01:53.441Z,8.77
2023-03-21T17:06:59.739Z,7.40
2023-03-21T17:12:13.696Z,9.17
2023-03-21T17:17:20.566Z,4.97
2023-03-21T17:22:41.661Z,7.33
2023-03-21T17:27:53.090Z,7.55
2023-03-21T17:32:59.108Z,6.10
2023-03-21T17:38:06.702Z,10.00
2023-03-21T17:43:19.789Z,8.52
2023-03-21T17:48:27.129Z,7.45
2023-03-21T17:53:32.741Z,5.30
2023-03-21T17:58:40.763Z,8.13
2023-03-21T18:03:46.893Z,6.63
2023-03-21T18:08:53.225Z,6.80
2023-03-21T18:14:15.006Z,9.95
2023-03-21T18:19:21.652Z,10.57
2023-03-21T18:24:26.902Z,11.52
2023-03-21T18:35:02.897Z,10.37
2023-03-21T18:40:12.068Z,12.60
2023-03-21T18:45:23.067Z,10.70
2023-03-21T18:50:28.500Z,11.90
2023-03-21T18:55:45.472Z,10.68
2023-03-21T19:00:55.489Z,11.03
2023-03-21T19:06:04.094Z,11.90
2023-03-21T19:11:10.497Z,10.40
2023-03-21T19:16:20.014Z,8.50
2023-03-21T19:21:25.851Z,7.40
2023-03-21T19:26:31.846Z,7.60
2023-03-21T19:31:40.718Z,8.70
2023-03-21T19:36:51.382Z,7.95
2023-03-21T19:42:15.005Z,12.13
2023-03-21T19:47:25.113Z,9.77
2023-03-21T19:52:32.238Z,8.95
2023-03-21T19:57:38.450Z,8.00
2023-03-21T20:02:47.296Z,7.00
2023-03-21T20:07:53.554Z,7.68
2023-03-21T20:12:59.369Z,8.03
2023-03-21T20:18:08.795Z,12.57
2023-03-21T20:23:16.032Z,9.13
2023-03-21T20:28:28.345Z,6.90
2023-03-21T20:33:37.204Z,8.63
2023-03-21T20:38:42.553Z,7.20
2023-03-21T20:44:34.396Z,7.03
2023-03-21T20:49:16.921Z,7.82
2023-03-21T20:54:22.832Z,8.93
2023-03-21T20:59:31.089Z,4.23
2023-03-21T21:04:52.948Z,4.32
2023-03-21T21:10:04.355Z,4.50
2023-03-21T21:15:12.334Z,3.83
2023-03-21T21:20:20.802Z,5.05
2023-03-21T21:25:26.783Z,5.53
2023-03-21T21:30:32.790Z,4.30
2023-03-21T21:35:47.415Z,7.30
2023-03-21T21:40:54.289Z,6.77
2023-03-21T21:45:59.751Z,7.38
2023-03-21T21:51:07.939Z,5.00
2023-03-21T21:56:15.942Z,8.47
2023-03-21T22:01:21.606Z,7.57
2023-03-21T22:06:29.574Z,4.63
2023-03-21T22:11:35.163Z,6.23
2023-03-21T22:16:40.524Z,5.03
2023-03-21T22:21:48.428Z,7.40
2023-03-21T22:27:02.028Z,5.05
2023-03-21T22:32:07.598Z,5.63
2023-03-21T22:37:15.662Z,6.30
2023-03-21T22:42:21.095Z,6.05
2023-03-21T22:47:26.707Z,6.35
2023-03-21T22:52:35.227Z,4.93
2023-03-21T22:57:40.765Z,5.57
2023-03-21T23:02:46.057Z,4.80
2023-03-21T23:07:53.987Z,6.93
2023-03-21T23:13:02.098Z,5.20
2023-03-21T23:18:07.608Z,6.90
2023-03-21T23:23:16.989Z,7.95
2023-03-21T23:28:22.301Z,6.63
2023-03-21T23:33:27.662Z,7.57
2023-03-21T23:38:36.177Z,7.10
2023-03-21T23:43:42.621Z,6.43
2023-03-21T23:48:49.249Z,5.90
2023-03-21T23:54:02.645Z,7.55
2023-03-21T23:59:08.746Z,9.40
